Time;durP1;ratioP1;P1;durP2;ratioP2;P2;SDS_P1;SDS_P2;PMS_P1;PMS_P2;Temp;Humidity;BMP_temperature;BMP_pressure;BME280_temperature;BME280_humidity;BME280_pressure;Samples;Min_cycle;Max_cycle;Signal;HPM_P1;HPM_P2
2021/11/19 00:00:57;;;;;;;;;30.00;23.50;;;;;17.42;100.00;102808.66;5050389;28;47047;-87
2021/11/19 00:03:23;;;;;;;;;29.25;23.25;;;;;17.42;100.00;102817.53;5060870;28;45894;-86
2021/11/19 00:05:50;;;;;;;;;33.50;30.25;;;;;17.40;100.00;102813.25;5066570;28;45496;-87
2021/11/19 00:08:25;;;;;;;;;32.75;23.00;;;;;17.48;100.00;102816.31;5059831;28;46931;-86
2021/11/19 00:10:51;;;;;;;;;30.75;22.00;;;;;17.45;100.00;102812.00;5067981;28;46258;-86
2021/11/19 00:13:17;;;;;;;;;31.25;25.50;;;;;17.47;100.00;102804.78;5067742;28;45576;-87
2021/11/19 00:15:42;;;;;;;;;32.75;24.25;;;;;17.50;100.00;102812.56;5059555;28;45326;-86
2021/11/19 00:18:07;;;;;;;;;29.00;23.25;;;;;17.50;100.00;102809.03;5066320;28;45516;-87
2021/11/19 00:20:33;;;;;;;;;35.00;28.75;;;;;17.39;100.00;102808.88;5060339;27;45350;-86
2021/11/19 00:23:01;;;;;;;;;34.75;28.25;;;;;17.43;100.00;102807.72;5060884;28;45243;-86
2021/11/19 00:25:27;;;;;;;;;30.00;23.00;;;;;17.48;100.00;102801.13;5061264;28;45379;-87
2021/11/19 00:27:53;;;;;;;;;34.75;25.25;;;;;17.37;100.00;102808.13;5065142;28;45390;-86
2021/11/19 00:30:21;;;;;;;;;32.00;27.00;;;;;17.41;100.00;102806.94;5066941;28;45611;-86
2021/11/19 00:32:47;;;;;;;;;28.75;20.50;;;;;17.25;100.00;102795.53;5082278;28;45389;-86
2021/11/19 00:35:14;;;;;;;;;29.25;26.25;;;;;17.62;100.00;102792.25;5083096;27;45258;-87
2021/11/19 00:37:40;;;;;;;;;35.00;23.00;;;;;17.64;100.00;102800.19;5082904;28;45487;-86
2021/11/19 00:40:10;;;;;;;;;40.25;24.50;;;;;17.72;100.00;102797.88;5068945;28;46080;-86
2021/11/19 00:42:35;;;;;;;;;26.00;20.75;;;;;17.66;100.00;102787.59;5067580;28;45851;-87
2021/11/19 00:45:01;;;;;;;;;29.25;21.75;;;;;17.61;100.00;102790.50;5077727;28;45375;-86
2021/11/19 00:47:26;;;;;;;;;32.00;23.50;;;;;17.63;100.00;102798.47;5080468;27;45362;-86
2021/11/19 00:49:53;;;;;;;;;27.25;24.50;;;;;17.66;100.00;102779.56;5079651;28;45630;-86
2021/11/19 00:52:19;;;;;;;;;28.75;21.00;;;;;17.70;100.00;102789.94;5082355;27;45575;-86
2021/11/19 00:54:45;;;;;;;;;30.00;23.75;;;;;17.67;100.00;102795.47;5066122;28;45438;-87
2021/11/19 00:57:13;;;;;;;;;31.00;22.75;;;;;17.79;100.00;102800.03;5068316;27;45445;-85
2021/11/19 00:59:41;;;;;;;;;32.25;23.50;;;;;17.75;100.00;102793.19;5062771;28;45738;-87
2021/11/19 01:02:15;;;;;;;;;25.25;22.00;;;;;17.86;100.00;102790.66;5079829;28;45473;-87
2021/11/19 01:04:42;;;;;;;;;32.50;21.00;;;;;17.89;100.00;102789.59;5072294;28;45562;-87
2021/11/19 01:07:09;;;;;;;;;34.00;22.50;;;;;17.80;100.00;102784.88;5073532;28;45647;-87
2021/11/19 01:09:38;;;;;;;;;23.75;22.00;;;;;17.83;100.00;102785.53;5060325;28;48240;-87
2021/11/19 01:12:06;;;;;;;;;24.50;20.75;;;;;17.79;100.00;102788.50;5068465;28;45428;-87
2021/11/19 01:14:39;;;;;;;;;32.00;25.00;;;;;17.79;100.00;102776.00;5057578;28;45527;-87
2021/11/19 01:17:11;;;;;;;;;29.50;25.75;;;;;17.83;100.00;102780.19;5062573;28;45421;-86
2021/11/19 01:19:51;;;;;;;;;33.50;23.75;;;;;17.84;100.00;102778.38;5079428;28;45524;-87
2021/11/19 01:22:21;;;;;;;;;31.00;25.00;;;;;17.77;100.00;102772.53;5062760;28;45422;-86
2021/11/19 01:24:47;;;;;;;;;27.50;19.50;;;;;17.77;100.00;102780.56;5067659;28;45430;-86
2021/11/19 01:27:13;;;;;;;;;26.75;22.25;;;;;17.77;100.00;102780.56;5068885;28;45546;-87
2021/11/19 01:29:39;;;;;;;;;28.25;23.75;;;;;17.79;100.00;102773.31;5062652;28;46393;-87
2021/11/19 01:32:11;;;;;;;;;26.00;22.75;;;;;17.83;100.00;102771.31;5082016;27;45346;-87
2021/11/19 01:34:38;;;;;;;;;25.00;21.75;;;;;17.73;100.00;102773.72;5061318;28;45415;-87
2021/11/19 01:37:05;;;;;;;;;21.75;19.00;;;;;17.74;100.00;102778.13;5078000;28;45544;-87
2021/11/19 01:39:32;;;;;;;;;29.50;21.75;;;;;17.72;100.00;102781.84;5063150;28;47159;-87
2021/11/19 01:42:09;;;;;;;;;23.00;20.50;;;;;17.76;100.00;102775.31;5083846;27;45297;-87
2021/11/19 01:44:40;;;;;;;;;32.25;22.00;;;;;17.72;100.00;102768.47;5075442;28;45437;-87
2021/11/19 01:47:09;;;;;;;;;28.75;23.25;;;;;17.81;100.00;102778.56;5067075;28;45596;-86
2021/11/19 01:49:35;;;;;;;;;27.75;20.75;;;;;17.82;100.00;102778.47;5081226;28;48266;-87
2021/11/19 01:52:05;;;;;;;;;20.00;10.50;;;;;17.91;100.00;102774.34;5081631;28;45252;-87
2021/11/19 01:54:51;;;;;;;;;30.25;24.00;;;;;17.65;100.00;102767.16;5051477;28;45457;-87
2021/11/19 01:57:24;;;;;;;;;34.50;24.25;;;;;17.82;100.00;102766.91;5065717;28;45355;-87
2021/11/19 01:59:52;;;;;;;;;25.50;18.75;;;;;17.74;100.00;102777.25;5060034;28;48836;-87
2021/11/19 02:02:24;;;;;;;;;26.25;22.00;;;;;17.76;100.00;102767.31;5061334;28;45236;-87
2021/11/19 02:04:54;;;;;;;;;33.75;21.50;;;;;17.75;100.00;102761.13;5065893;28;45492;-87
2021/11/19 02:07:23;;;;;;;;;30.50;19.50;;;;;17.79;100.00;102765.28;5075975;28;45363;-87
2021/11/19 02:10:00;;;;;;;;;27.75;22.50;;;;;17.77;100.00;102764.53;5061422;28;46337;-87
2021/11/19 02:12:34;;;;;;;;;26.75;23.50;;;;;17.79;100.00;102767.09;5073953;28;45153;-87
2021/11/19 02:15:18;;;;;;;;;25.75;22.50;;;;;17.83;100.00;102757.94;5073106;28;45420;-87
2021/11/19 02:17:48;;;;;;;;;29.50;24.50;;;;;17.81;100.00;102759.84;5083690;28;45444;-87
2021/11/19 02:20:28;;;;;;;;;29.00;22.25;;;;;17.84;100.00;102763.19;5072344;28;46318;-87
2021/11/19 02:23:05;;;;;;;;;40.75;21.75;;;;;17.88;100.00;102763.81;5054472;28;45610;-87
2021/11/19 02:25:44;;;;;;;;;25.25;19.75;;;;;17.84;100.00;102759.66;5045836;28;45534;-87
2021/11/19 02:28:20;;;;;;;;;25.50;21.75;;;;;17.83;100.00;102764.16;5053511;28;45560;-87
2021/11/19 02:30:56;;;;;;;;;25.25;19.50;;;;;17.80;100.00;102758.13;5076336;27;46684;-87
2021/11/19 02:33:24;;;;;;;;;21.50;16.00;;;;;17.87;100.00;102767.47;5068706;28;45982;-87
2021/11/19 02:36:07;;;;;;;;;30.00;23.25;;;;;17.82;100.00;102759.75;5080405;28;45366;-87
2021/11/19 02:38:47;;;;;;;;;25.75;20.75;;;;;17.81;100.00;102766.06;5059171;28;45638;-87
2021/11/19 02:41:16;;;;;;;;;34.25;21.75;;;;;17.68;100.00;102759.78;5059198;28;46587;-87
2021/11/19 02:43:48;;;;;;;;;27.50;22.00;;;;;17.71;100.00;102754.25;5059341;28;45622;-87
2021/11/19 02:46:17;;;;;;;;;30.50;19.75;;;;;17.64;100.00;102760.09;5060706;28;45161;-87
2021/11/19 02:48:43;;;;;;;;;33.50;22.25;;;;;17.73;100.00;102757.69;5059022;28;45609;-87
2021/11/19 02:51:10;;;;;;;;;29.75;22.00;;;;;17.70;100.00;102757.03;5076832;28;45401;-88
2021/11/19 02:53:36;;;;;;;;;27.25;19.50;;;;;17.62;100.00;102748.63;5075263;28;45468;-87
2021/11/19 02:56:02;;;;;;;;;23.50;20.00;;;;;17.66;100.00;102753.72;5066901;28;45331;-87
2021/11/19 02:58:33;;;;;;;;;32.50;22.00;;;;;17.75;100.00;102753.13;5064840;28;45399;-87
2021/11/19 03:01:11;;;;;;;;;28.50;21.50;;;;;17.78;100.00;102763.56;5060480;28;47987;-87
2021/11/19 03:03:39;;;;;;;;;30.50;22.50;;;;;17.58;100.00;102750.63;5068666;28;45464;-87
2021/11/19 03:06:05;;;;;;;;;25.00;21.00;;;;;17.64;100.00;102755.63;5062535;28;45348;-87
2021/11/19 03:08:33;;;;;;;;;25.75;21.25;;;;;17.76;100.00;102749.44;5062088;28;45298;-87
2021/11/19 03:10:59;;;;;;;;;29.25;21.25;;;;;17.81;100.00;102755.38;5075897;28;46041;-87
2021/11/19 03:13:27;;;;;;;;;22.00;20.50;;;;;17.90;100.00;102754.75;5071195;28;45434;-87
2021/11/19 03:15:53;;;;;;;;;25.00;23.75;;;;;17.89;100.00;102758.38;5071872;28;45315;-87
2021/11/19 03:18:22;;;;;;;;;28.75;23.75;;;;;17.98;100.00;102751.56;5061131;28;45232;-87
2021/11/19 03:20:51;;;;;;;;;17.00;10.00;;;;;18.02;100.00;102745.06;5059504;28;45482;-87
2021/11/19 03:23:17;;;;;;;;;28.25;20.75;;;;;17.95;100.00;102749.09;5065103;28;45433;-87
2021/11/19 03:25:43;;;;;;;;;25.75;23.00;;;;;18.05;100.00;102743.97;5076040;27;45213;-87
2021/11/19 03:28:12;;;;;;;;;30.00;22.50;;;;;18.03;100.00;102736.06;5058582;28;45205;-87
2021/11/19 03:30:41;;;;;;;;;32.50;25.00;;;;;18.02;100.00;102742.41;5059612;28;46118;-87
2021/11/19 03:33:09;;;;;;;;;25.25;21.00;;;;;18.02;100.00;102736.19;5071595;28;45534;-87
2021/11/19 03:35:35;;;;;;;;;31.25;21.25;;;;;17.93;100.00;102737.66;5078025;28;45302;-87
2021/11/19 03:38:01;;;;;;;;;26.00;20.00;;;;;18.01;100.00;102742.50;5069215;28;45477;-87
2021/11/19 03:40:34;;;;;;;;;31.25;23.75;;;;;18.08;100.00;102744.66;5060682;28;45479;-87
2021/11/19 03:43:00;;;;;;;;;22.75;18.00;;;;;17.93;100.00;102732.31;5060021;28;45560;-87
2021/11/19 03:45:35;;;;;;;;;31.00;22.25;;;;;18.12;100.00;102737.28;5073951;28;45327;-87
2021/11/19 03:48:02;;;;;;;;;28.00;21.75;;;;;17.97;100.00;102740.97;5071259;28;45396;-87
2021/11/19 03:50:36;;;;;;;;;27.50;21.00;;;;;18.01;100.00;102739.81;5077522;28;46373;-87
2021/11/19 03:53:01;;;;;;;;;33.25;21.00;;;;;17.83;100.00;102742.78;5078299;27;45606;-87
2021/11/19 03:55:30;;;;;;;;;23.00;19.50;;;;;17.80;100.00;102742.09;5049673;28;45647;-87
2021/11/19 03:57:57;;;;;;;;;34.50;22.25;;;;;17.70;100.00;102736.50;5076391;28;45429;-86
2021/11/19 04:00:26;;;;;;;;;27.00;17.75;;;;;17.69;100.00;102737.47;5079029;28;46520;-87
2021/11/19 04:02:53;;;;;;;;;28.25;21.00;;;;;17.70;100.00;102746.34;5059901;28;45703;-87
2021/11/19 04:05:20;;;;;;;;;25.25;19.75;;;;;17.53;100.00;102732.25;5065404;28;45418;-88
2021/11/19 04:07:45;;;;;;;;;21.50;19.75;;;;;17.57;100.00;102728.38;5075263;28;45315;-87
2021/11/19 04:10:11;;;;;;;;;28.50;21.75;;;;;17.56;100.00;102734.72;5062675;28;45488;-87
2021/11/19 04:12:38;;;;;;;;;26.25;21.25;;;;;17.66;100.00;102740.34;5067695;28;45370;-87
2021/11/19 04:15:07;;;;;;;;;31.50;20.50;;;;;17.51;100.00;102733.28;5066153;28;45272;-86
2021/11/19 04:17:32;;;;;;;;;35.25;23.00;;;;;17.71;100.00;102737.38;5071359;28;45549;-87
2021/11/19 04:19:57;;;;;;;;;26.25;18.75;;;;;17.70;100.00;102739.19;5078939;27;45589;-87
2021/11/19 04:22:23;;;;;;;;;25.25;21.00;;;;;17.70;100.00;102738.31;5068129;28;45354;-87
2021/11/19 04:24:53;;;;;;;;;29.75;22.50;;;;;17.79;100.00;102738.56;5070138;28;45317;-87
2021/11/19 04:27:19;;;;;;;;;20.75;16.00;;;;;17.74;100.00;102738.03;5058192;28;45493;-87
2021/11/19 04:29:45;;;;;;;;;22.25;19.25;;;;;17.75;100.00;102739.75;5057884;28;48169;-87
2021/11/19 04:32:11;;;;;;;;;28.00;20.25;;;;;17.74;100.00;102740.69;5071917;28;45362;-87
2021/11/19 04:34:40;;;;;;;;;20.75;18.25;;;;;17.82;100.00;102745.53;5070612;27;45888;-87
2021/11/19 04:37:05;;;;;;;;;28.50;18.75;;;;;17.80;100.00;102739.44;5075124;28;45389;-86
2021/11/19 04:39:31;;;;;;;;;22.25;18.00;;;;;17.81;100.00;102736.66;5063333;28;46159;-87
2021/11/19 04:41:56;;;;;;;;;22.50;15.25;;;;;17.81;100.00;102735.81;5069474;28;45458;-87
2021/11/19 04:44:22;;;;;;;;;23.25;19.50;;;;;17.70;100.00;102741.84;5074967;28;45464;-87
2021/11/19 04:46:48;;;;;;;;;24.00;17.50;;;;;17.79;100.00;102743.06;5067791;27;45171;-87
2021/11/19 04:49:14;;;;;;;;;29.25;19.75;;;;;17.82;100.00;102733.03;5080375;28;47400;-87
2021/11/19 04:51:42;;;;;;;;;31.75;22.50;;;;;17.90;100.00;102737.88;5085551;28;45222;-87
2021/11/19 04:54:10;;;;;;;;;23.25;19.00;;;;;17.83;100.00;102736.56;5071370;28;45410;-87
2021/11/19 04:56:37;;;;;;;;;30.00;24.00;;;;;17.82;100.00;102734.84;5066488;28;45306;-87
2021/11/19 04:59:05;;;;;;;;;28.75;21.50;;;;;17.85;100.00;102730.13;5076541;28;46063;-87
2021/11/19 05:01:42;;;;;;;;;20.50;17.50;;;;;17.95;100.00;102739.25;5075552;28;45045;-87
2021/11/19 05:04:08;;;;;;;;;23.25;21.25;;;;;17.98;100.00;102740.88;5071537;28;45385;-87
2021/11/19 05:06:34;;;;;;;;;35.50;23.75;;;;;18.00;100.00;102730.09;5086048;28;44768;-87
2021/11/19 05:09:00;;;;;;;;;23.00;20.00;;;;;17.93;100.00;102737.66;5080609;28;45350;-87
2021/11/19 05:11:30;;;;;;;;;26.75;20.00;;;;;17.88;100.00;102740.63;5102427;28;45192;-87
2021/11/19 05:13:58;;;;;;;;;28.75;19.75;;;;;17.83;100.00;102736.56;5093107;28;45452;-86
2021/11/19 05:16:24;;;;;;;;;28.25;20.75;;;;;17.85;100.00;102729.28;5087341;28;44848;-86
2021/11/19 05:18:49;;;;;;;;;28.50;18.00;;;;;17.80;100.00;102728.75;5098717;27;45386;-86
2021/11/19 05:21:18;;;;;;;;;26.75;18.50;;;;;17.81;100.00;102730.47;5081475;28;44832;-86
2021/11/19 05:23:44;;;;;;;;;26.00;19.25;;;;;17.88;100.00;102729.94;5085385;28;44697;-86
2021/11/19 05:26:09;;;;;;;;;29.75;22.75;;;;;17.91;100.00;102726.22;5086580;27;44839;-86
2021/11/19 05:28:35;;;;;;;;;27.00;20.50;;;;;17.79;100.00;102722.53;5098745;27;45134;-85
2021/11/19 05:31:02;;;;;;;;;26.75;23.00;;;;;17.86;100.00;102718.50;5087832;28;45226;-86
2021/11/19 05:33:30;;;;;;;;;23.50;19.00;;;;;17.95;100.00;102725.03;5081072;28;45587;-86
2021/11/19 05:35:56;;;;;;;;;30.50;21.00;;;;;17.76;100.00;102720.06;5068042;28;45291;-86
2021/11/19 05:38:24;;;;;;;;;27.00;19.50;;;;;17.63;100.00;102721.84;5072309;28;45414;-86
2021/11/19 05:40:50;;;;;;;;;29.75;21.25;;;;;17.68;100.00;102717.03;5076152;28;45432;-86
2021/11/19 05:43:17;;;;;;;;;22.50;17.75;;;;;17.72;100.00;102728.41;5062223;28;45265;-86
2021/11/19 05:45:43;;;;;;;;;23.75;18.25;;;;;17.63;100.00;102721.84;5062987;28;45331;-86
2021/11/19 05:48:08;;;;;;;;;22.25;17.50;;;;;17.60;100.00;102730.00;5060570;28;47790;-86
2021/11/19 05:50:37;;;;;;;;;23.50;16.25;;;;;17.65;100.00;102727.94;5062641;28;45449;-86
2021/11/19 05:53:04;;;;;;;;;19.50;17.00;;;;;17.65;100.00;102727.94;5062358;28;45180;-86
2021/11/19 05:55:34;;;;;;;;;22.00;17.25;;;;;17.79;100.00;102741.25;5064377;28;45699;-86
2021/11/19 05:57:59;;;;;;;;;21.75;16.00;;;;;17.66;100.00;102740.34;5063938;28;47197;-86
2021/11/19 06:00:30;;;;;;;;;22.00;20.00;;;;;17.70;100.00;102744.53;5060487;28;45458;-86
2021/11/19 06:02:55;;;;;;;;;23.00;16.00;;;;;17.61;100.00;102746.91;5076236;28;45431;-86
2021/11/19 06:05:22;;;;;;;;;22.75;17.25;;;;;17.69;100.00;102745.47;5081701;28;45286;-86
2021/11/19 06:07:47;;;;;;;;;22.25;17.25;;;;;17.69;100.00;102741.94;5082777;28;45399;-86
2021/11/19 06:10:17;;;;;;;;;18.75;15.50;;;;;17.77;100.00;102742.28;5081617;28;45513;-86
2021/11/19 06:12:46;;;;;;;;;18.75;15.50;;;;;17.80;100.00;102748.31;5077204;27;45548;-86
2021/11/19 06:15:19;;;;;;;;;21.25;16.50;;;;;17.63;100.00;102740.53;5060470;28;45700;-87
2021/11/19 06:17:47;;;;;;;;;27.50;18.50;;;;;17.66;100.00;102734.16;5065745;28;45303;-86
2021/11/19 06:20:23;;;;;;;;;21.75;19.00;;;;;17.65;100.00;102738.63;5057337;28;45370;-86
2021/11/19 06:22:57;;;;;;;;;20.75;16.50;;;;;17.66;100.00;102742.16;5061568;28;45483;-87
2021/11/19 06:25:26;;;;;;;;;21.75;18.25;;;;;17.72;100.00;102739.94;5058844;28;45339;-86
2021/11/19 06:27:54;;;;;;;;;29.75;19.00;;;;;17.75;100.00;102749.59;5055196;28;46111;-86
2021/11/19 06:30:22;;;;;;;;;21.50;19.50;;;;;17.83;100.00;102752.59;5069093;28;45372;-86
2021/11/19 06:32:48;;;;;;;;;21.25;16.25;;;;;17.80;100.00;102742.97;5064358;28;46375;-86
2021/11/19 06:35:15;;;;;;;;;17.75;16.00;;;;;17.87;100.00;102752.28;5063411;28;46151;-86
2021/11/19 06:37:40;;;;;;;;;21.00;16.50;;;;;17.83;100.00;102749.94;5061028;28;45594;-86
2021/11/19 06:40:11;;;;;;;;;20.75;16.25;;;;;17.83;100.00;102747.25;5066560;28;45339;-86
2021/11/19 06:42:37;;;;;;;;;19.00;18.00;;;;;17.77;100.00;102752.97;5083915;27;45239;-86
2021/11/19 06:45:03;;;;;;;;;25.50;18.75;;;;;17.81;100.00;102758.03;5080129;28;45552;-86
2021/11/19 06:47:29;;;;;;;;;21.50;16.50;;;;;17.81;100.00;102752.69;5081011;28;46309;-86
2021/11/19 06:49:54;;;;;;;;;19.75;16.50;;;;;17.78;100.00;102760.91;5073091;28;45390;-86
2021/11/19 06:52:20;;;;;;;;;20.25;18.50;;;;;17.84;100.00;102755.19;5070601;28;45235;-86
2021/11/19 06:54:45;;;;;;;;;22.75;16.25;;;;;17.85;100.00;102756.00;5077075;27;45260;-85
2021/11/19 06:57:11;;;;;;;;;22.75;17.00;;;;;17.83;100.00;102750.78;5059875;28;46385;-86
2021/11/19 06:59:39;;;;;;;;;24.00;21.50;;;;;17.87;100.00;102756.75;5059798;28;45379;-86
2021/11/19 07:02:07;;;;;;;;;34.75;20.25;;;;;17.88;100.00;102750.47;5061340;27;45329;-86
2021/11/19 07:04:33;;;;;;;;;25.00;19.75;;;;;17.83;100.00;102748.13;5061000;28;45543;-86
2021/11/19 07:06:59;;;;;;;;;29.25;21.25;;;;;17.79;100.00;102759.09;5064161;28;45570;-86
2021/11/19 07:09:24;;;;;;;;;15.00;12.50;;;;;17.86;100.00;102758.56;5059205;28;45753;-86
2021/11/19 07:11:50;;;;;;;;;31.50;21.75;;;;;17.82;100.00;102762.44;5069104;28;45258;-86
2021/11/19 07:14:16;;;;;;;;;21.25;17.75;;;;;17.76;100.00;102770.84;5062143;28;45443;-86
2021/11/19 07:16:42;;;;;;;;;33.25;22.50;;;;;17.61;100.00;102774.47;5058945;28;45446;-87
2021/11/19 07:19:08;;;;;;;;;23.75;18.25;;;;;17.65;100.00;102778.72;5065572;28;45773;-86
2021/11/19 07:21:35;;;;;;;;;28.50;20.75;;;;;17.45;100.00;102774.63;5070009;28;45195;-86
2021/11/19 07:24:01;;;;;;;;;27.75;19.50;;;;;17.60;100.00;102783.44;5061933;28;45495;-86
2021/11/19 07:26:28;;;;;;;;;23.00;20.75;;;;;17.72;100.00;102785.38;5056225;28;47214;-87
2021/11/19 07:28:55;;;;;;;;;21.25;20.00;;;;;17.72;100.00;102788.03;5060221;28;45614;-87
2021/11/19 07:31:20;;;;;;;;;28.75;19.75;;;;;17.71;100.00;102786.31;5067277;28;45398;-83
2021/11/19 07:33:46;;;;;;;;;24.50;20.50;;;;;17.87;100.00;102789.69;5059109;28;45635;-85
2021/11/19 07:36:13;;;;;;;;;27.50;21.25;;;;;17.74;100.00;102793.28;5066352;28;46017;-85
2021/11/19 07:38:41;;;;;;;;;29.00;21.25;;;;;17.74;100.00;102796.81;5065344;28;45338;-84
2021/11/19 07:41:07;;;;;;;;;29.50;16.00;;;;;17.71;100.00;102799.69;5058084;28;45619;-84
2021/11/19 07:43:37;;;;;;;;;27.75;20.00;;;;;17.78;100.00;102802.81;5057656;28;45596;-84
2021/11/19 07:46:03;;;;;;;;;25.25;23.00;;;;;17.79;100.00;102810.72;5059309;28;45302;-84
2021/11/19 07:48:32;;;;;;;;;23.50;21.00;;;;;17.88;100.00;102809.25;5061710;28;45301;-85
2021/11/19 07:51:02;;;;;;;;;27.25;21.00;;;;;17.92;100.00;102803.63;5057248;28;45314;-85
2021/11/19 07:53:28;;;;;;;;;32.75;24.50;;;;;17.80;100.00;102798.22;5062571;28;45351;-84
2021/11/19 07:55:55;;;;;;;;;25.75;21.75;;;;;17.86;100.00;102804.03;5065516;27;46185;-85
2021/11/19 07:58:23;;;;;;;;;27.00;23.00;;;;;18.01;100.00;102812.88;5060106;28;45346;-85
2021/11/19 08:00:48;;;;;;;;;34.25;26.00;;;;;17.99;100.00;102806.75;5060023;28;45523;-85
2021/11/19 08:03:15;;;;;;;;;30.25;25.25;;;;;18.06;100.00;102812.53;5059065;28;45519;-86
2021/11/19 08:05:46;;;;;;;;;29.25;23.50;;;;;18.09;100.00;102812.34;5059885;28;45369;-85
2021/11/19 08:08:12;;;;;;;;;31.25;23.50;;;;;18.11;100.00;102818.47;5058782;28;46348;-85
2021/11/19 08:10:38;;;;;;;;;23.50;20.75;;;;;18.04;100.00;102809.09;5059429;28;45467;-84
2021/11/19 08:13:04;;;;;;;;;28.50;24.75;;;;;18.14;100.00;102813.75;5058904;28;45348;-84
2021/11/19 08:15:32;;;;;;;;;30.00;25.00;;;;;18.22;100.00;102822.13;5061772;28;45461;-85
2021/11/19 08:17:59;;;;;;;;;27.75;23.50;;;;;18.23;100.00;102825.66;5059710;28;45295;-85
2021/11/19 08:20:38;;;;;;;;;24.50;23.50;;;;;18.37;100.00;102822.06;5057635;28;45517;-85
2021/11/19 08:23:11;;;;;;;;;35.25;27.25;;;;;18.30;100.00;102816.25;5060101;28;45637;-85
2021/11/19 08:25:37;;;;;;;;;24.00;21.75;;;;;18.29;100.00;102812.75;5063112;28;47335;-84
2021/11/19 08:28:04;;;;;;;;;33.00;22.00;;;;;18.41;100.00;102818.19;5062592;28;46546;-84
2021/11/19 08:30:38;;;;;;;;;27.00;22.75;;;;;18.50;100.00;102812.22;5065689;28;45397;-85
2021/11/19 08:33:06;;;;;;;;;24.50;20.00;;;;;18.36;100.00;102813.19;5061994;28;45585;-84
2021/11/19 08:35:35;;;;;;;;;34.00;22.25;;;;;18.36;100.00;102812.31;5059941;28;48434;-84
2021/11/19 08:38:03;;;;;;;;;23.75;22.00;;;;;18.32;100.00;102811.66;5083303;28;45573;-85
2021/11/19 08:40:29;;;;;;;;;29.50;20.50;;;;;18.47;100.00;102815.13;5078589;28;45468;-85
2021/11/19 08:42:55;;;;;;;;;23.50;21.50;;;;;18.67;100.00;102810.13;5058703;28;45453;-85
2021/11/19 08:45:23;;;;;;;;;28.00;24.75;;;;;18.73;100.00;102814.22;5054037;28;46367;-85
2021/11/19 08:47:51;;;;;;;;;27.75;19.50;;;;;18.72;100.00;102815.19;5059415;28;45363;-85
2021/11/19 08:50:20;;;;;;;;;27.00;21.00;;;;;18.59;100.00;102800.94;5052117;28;45346;-85
2021/11/19 08:52:45;;;;;;;;;29.50;22.00;;;;;18.55;100.00;102810.97;5061409;28;45512;-85
2021/11/19 08:55:12;;;;;;;;;29.25;27.50;;;;;18.67;100.00;102811.97;5060741;28;45566;-85
2021/11/19 08:57:38;;;;;;;;;24.75;20.25;;;;;18.73;100.00;102811.56;5070278;28;45765;-85
2021/11/19 09:00:06;;;;;;;;;24.50;20.50;;;;;18.83;100.00;102809.97;5082985;28;45333;-85
2021/11/19 09:02:31;;;;;;;;;30.75;25.50;;;;;18.77;100.00;102809.50;5081348;28;45417;-85
2021/11/19 09:04:57;;;;;;;;;35.75;25.00;;;;;18.90;100.00;102808.56;5082490;28;45987;-85
2021/11/19 09:07:22;;;;;;;;;25.25;20.25;;;;;18.94;100.00;102806.50;5084001;28;45490;-86
2021/11/19 09:09:49;;;;;;;;;31.75;26.00;;;;;19.07;100.00;102807.38;5085395;28;45498;-86
2021/11/19 09:12:15;;;;;;;;;27.50;23.50;;;;;19.11;100.00;102816.91;5073310;28;45496;-86
2021/11/19 09:14:41;;;;;;;;;23.50;18.50;;;;;19.08;100.00;102811.75;5076659;28;47298;-86
2021/11/19 09:17:15;;;;;;;;;27.75;24.00;;;;;19.06;100.00;102819.91;5082473;28;45479;-86
2021/11/19 09:19:54;;;;;;;;;27.75;24.75;;;;;19.11;100.00;102819.59;5082250;28;45347;-86
2021/11/19 09:22:32;;;;;;;;;25.25;23.00;;;;;19.18;100.00;102826.22;5082498;27;45241;-86
2021/11/19 09:25:00;;;;;;;;;25.00;22.25;;;;;19.13;100.00;102816.78;5059373;28;46152;-86
2021/11/19 09:27:26;;;;;;;;;20.75;19.00;;;;;19.22;100.00;102817.00;5060098;28;45414;-86
2021/11/19 09:30:14;;;;;;;;;20.50;19.25;;;;;19.31;100.00;102823.50;5061328;28;45408;-85
2021/11/19 09:32:52;;;;;;;;;24.00;20.75;;;;;19.26;100.00;102818.50;5060208;28;45335;-86
2021/11/19 09:35:20;;;;;;;;;27.75;22.25;;;;;19.28;100.00;102835.31;5060129;28;45451;-86
2021/11/19 09:37:48;;;;;;;;;7.50;7.50;;;;;19.28;100.00;102829.97;5060464;28;45529;-85
2021/11/19 09:40:15;;;;;;;;;34.00;23.25;;;;;19.28;100.00;102829.09;5056434;28;45275;-85
2021/11/19 09:42:43;;;;;;;;;25.75;21.00;;;;;19.29;100.00;102830.81;5058946;28;45755;-87
2021/11/19 09:45:24;;;;;;;;;28.75;19.50;;;;;19.44;100.00;102833.25;5065567;28;45646;-84
2021/11/19 09:48:07;;;;;;;;;24.50;22.00;;;;;19.44;99.79;102829.72;5064553;28;45232;-85
2021/11/19 09:51:00;;;;;;;;;30.50;22.50;;;;;19.51;99.55;102830.16;5072164;28;45436;-86
2021/11/19 09:54:03;;;;;;;;;27.00;20.00;;;;;19.51;98.84;102827.47;5080344;28;45441;-86
2021/11/19 09:56:56;;;;;;;;;29.00;25.75;;;;;19.43;98.79;102828.84;5065682;28;46203;-86
2021/11/19 09:59:30;;;;;;;;;32.50;24.25;;;;;19.50;99.46;102831.13;5065362;28;45452;-84
2021/11/19 10:02:27;;;;;;;;;31.50;25.75;;;;;19.52;99.35;102826.50;5061162;28;45311;-84
2021/11/19 10:05:01;;;;;;;;;25.75;24.50;;;;;19.55;98.92;102828.97;5062588;28;45454;-83
2021/11/19 10:07:39;;;;;;;;;28.50;23.25;;;;;19.54;99.98;102828.13;5061612;28;46499;-84
2021/11/19 10:10:19;;;;;;;;;31.25;24.75;;;;;19.54;99.90;102819.22;5058482;28;46049;-84
2021/11/19 10:12:55;;;;;;;;;27.50;24.50;;;;;19.59;99.85;102825.09;5060591;28;45355;-84
2021/11/19 10:15:32;;;;;;;;;27.75;24.75;;;;;19.58;98.83;102820.69;5056630;28;45326;-85
2021/11/19 10:18:19;;;;;;;;;38.75;24.75;;;;;19.57;98.87;102821.69;5054392;27;45368;-85
2021/11/19 10:23:23;;;;;;;;;33.25;24.25;;;;;19.68;98.15;102805.66;5059506;28;68790;-85
2021/11/19 10:25:51;;;;;;;;;24.25;22.00;;;;;19.63;97.67;102818.56;5061568;28;45319;-85
2021/11/19 10:28:23;;;;;;;;;24.50;22.00;;;;;19.74;97.58;102815.97;5062400;28;47949;-86
2021/11/19 10:30:51;;;;;;;;;29.50;25.25;;;;;19.70;97.33;102815.31;5060761;28;45617;-85
2021/11/19 10:33:23;;;;;;;;;27.00;22.75;;;;;19.67;97.09;102801.25;5059615;28;45428;-85
2021/11/19 10:35:57;;;;;;;;;26.50;24.00;;;;;19.74;97.72;102815.97;5060551;28;45235;-85
2021/11/19 10:38:32;;;;;;;;;26.75;23.25;;;;;19.78;97.47;102814.75;5059510;28;47537;-85
2021/11/19 10:41:22;;;;;;;;;33.25;27.00;;;;;19.88;97.23;102810.41;5060579;28;45346;-85
2021/11/19 10:44:11;;;;;;;;;34.00;26.00;;;;;20.00;97.41;102805.97;5059311;28;45350;-85
2021/11/19 10:47:17;;;;;;;;;36.75;27.75;;;;;20.03;97.29;102806.59;5060194;28;45367;-85
2021/11/19 10:49:49;;;;;;;;;29.00;25.00;;;;;19.92;96.48;102800.34;5058809;28;46483;-85
2021/11/19 10:52:29;;;;;;;;;37.50;30.75;;;;;19.97;96.39;102801.69;5060494;28;45643;-85
2021/11/19 10:55:26;;;;;;;;;38.25;28.25;;;;;19.96;96.83;102805.34;5058473;28;45339;-85
2021/11/19 10:58:36;;;;;;;;;31.75;29.00;;;;;20.01;95.98;102805.88;5049681;28;45296;-85
2021/11/19 11:01:56;;;;;;;;;37.75;26.50;;;;;20.09;95.98;102803.47;5056138;28;46432;-85
2021/11/19 11:04:30;;;;;;;;;23.75;21.00;;;;;20.07;95.55;102804.53;5052699;28;45578;-85
2021/11/19 11:07:19;;;;;;;;;28.75;24.00;;;;;20.14;95.38;102795.91;5064169;28;45351;-85
2021/11/19 11:09:58;;;;;;;;;38.25;28.25;;;;;20.16;95.57;102799.34;5060377;28;45441;-85
2021/11/19 11:12:24;;;;;;;;;39.00;28.25;;;;;20.14;94.88;102795.06;5060342;28;45257;-84
2021/11/19 11:15:08;;;;;;;;;40.50;29.00;;;;;20.18;94.38;102797.41;5080126;28;45422;-85
2021/11/19 11:17:35;;;;;;;;;33.75;29.75;;;;;20.09;94.63;102783.84;5080523;28;45350;-84